Time;durP1;ratioP1;P1;durP2;ratioP2;P2;SDS_P1;SDS_P2;PMS_P1;PMS_P2;Temp;Humidity;BMP_temperature;BMP_pressure;BME280_temperature;BME280_humidity;BME280_pressure;Samples;Min_cycle;Max_cycle;Signal;HPM_P1;HPM_P2
2022/06/11 00:00:18;;;;;;;20.73;11.63;;;;;;;17.68;64.21;99333.34;5100535;27;20046;-68
2022/06/11 00:02:43;;;;;;;19.08;11.45;;;;;;;17.65;64.64;99328.28;5100378;27;20049;-69
2022/06/11 00:05:08;;;;;;;21.63;11.40;;;;;;;17.61;64.57;99332.25;5106333;27;20042;-71
2022/06/11 00:07:34;;;;;;;23.95;11.80;;;;;;;17.59;65.03;99336.16;5089306;27;20050;-67
2022/06/11 00:09:59;;;;;;;19.60;11.30;;;;;;;17.57;64.96;99335.47;5107918;27;20042;-71
2022/06/11 00:12:26;;;;;;;24.90;11.60;;;;;;;17.53;64.98;99328.69;5100933;27;20198;-68
2022/06/11 00:14:50;;;;;;;17.65;11.82;;;;;;;17.51;65.23;99330.69;5117518;27;20489;-66
2022/06/11 00:17:18;;;;;;;19.80;11.10;;;;;;;17.46;65.34;99328.50;5116976;27;20125;-67
2022/06/11 00:19:44;;;;;;;21.70;11.65;;;;;;;17.43;65.63;99336.91;5098398;27;20042;-68
2022/06/11 00:22:10;;;;;;;20.40;12.05;;;;;;;17.40;65.78;99334.53;5117338;27;20496;-70
2022/06/11 00:24:36;;;;;;;21.70;11.45;;;;;;;17.35;65.88;99339.56;5117756;27;20452;-70
2022/06/11 00:27:01;;;;;;;17.90;10.55;;;;;;;17.33;66.27;99339.72;5105740;27;20559;-71
2022/06/11 00:29:29;;;;;;;17.10;12.18;;;;;;;17.33;66.32;99338.88;5111288;27;20425;-71
2022/06/11 00:31:54;;;;;;;26.20;12.73;;;;;;;17.28;66.29;99330.41;5108091;27;20065;-69
2022/06/11 00:34:19;;;;;;;23.17;13.10;;;;;;;17.25;66.58;99337.00;5113004;27;20042;-68
2022/06/11 00:36:45;;;;;;;18.08;10.65;;;;;;;17.22;66.38;99333.75;5111364;27;20047;-70
2022/06/11 00:39:13;;;;;;;16.00;11.10;;;;;;;17.20;66.70;99344.69;5094056;27;20043;-70
2022/06/11 00:41:41;;;;;;;26.90;12.80;;;;;;;17.17;66.89;99342.31;5115682;27;20047;-68
2022/06/11 00:44:06;;;;;;;21.38;13.20;;;;;;;17.12;66.73;99338.41;5115771;27;20046;-68
2022/06/11 00:46:44;;;;;;;25.63;12.13;;;;;;;17.18;67.33;99348.53;5095721;27;20043;-68
2022/06/11 00:49:21;;;;;;;22.88;12.45;;;;;;;17.15;67.33;99352.41;5095011;27;20042;-68
2022/06/11 00:51:46;;;;;;;22.92;12.55;;;;;;;17.04;67.36;99352.69;5097987;27;20035;-71
2022/06/11 00:54:17;;;;;;;24.05;12.20;;;;;;;17.04;67.67;99353.50;5098102;27;20066;-71
2022/06/11 00:56:47;;;;;;;20.35;11.95;;;;;;;17.04;67.42;99358.88;5097626;27;20035;-70
2022/06/11 00:59:18;;;;;;;24.40;11.80;;;;;;;17.02;67.86;99350.16;5116375;27;20172;-71
2022/06/11 01:01:43;;;;;;;28.58;12.10;;;;;;;16.98;67.62;99354.16;5115813;27;20030;-68
2022/06/11 01:04:39;;;;;;;16.90;12.40;;;;;;;17.05;68.08;99355.19;5116411;27;20499;-68
2022/06/11 01:07:33;;;;;;;18.67;11.32;;;;;;;17.05;68.09;99359.72;5097015;27;20050;-69
2022/06/11 01:10:20;;;;;;;18.90;12.73;;;;;;;17.02;67.97;99363.59;4995557;28;20098;-67
2022/06/11 01:12:51;;;;;;;25.90;11.55;;;;;;;16.96;67.96;99369.59;5012202;28;20036;-68
2022/06/11 01:15:38;;;;;;;19.98;12.15;;;;;;;16.97;68.05;99371.31;5012276;28;20052;-68
2022/06/11 01:18:14;;;;;;;21.25;11.30;;;;;;;16.91;67.84;99374.63;4995492;28;20037;-67
2022/06/11 01:20:58;;;;;;;25.90;13.35;;;;;;;16.96;68.30;99377.69;5028574;28;20094;-68
2022/06/11 01:23:37;;;;;;;17.48;12.00;;;;;;;16.87;68.28;99378.63;5011815;28;20036;-69
2022/06/11 01:26:14;;;;;;;27.55;13.18;;;;;;;16.92;68.37;99384.41;5013261;28;20470;-70
2022/06/11 01:29:02;;;;;;;22.95;13.38;;;;;;;16.96;68.07;99384.91;5013116;28;20045;-70
2022/06/11 01:32:00;;;;;;;21.05;11.65;;;;;;;16.96;68.00;99388.47;5012655;28;20527;-68
2022/06/11 01:34:56;;;;;;;16.65;11.40;;;;;;;16.95;68.01;99386.75;5008108;28;20065;-71
2022/06/11 01:37:31;;;;;;;15.95;11.27;;;;;;;16.90;68.24;99383.72;5012746;28;20044;-71
2022/06/11 01:40:02;;;;;;;22.17;12.38;;;;;;;16.88;68.33;99384.88;5003942;28;20068;-70
2022/06/11 01:42:54;;;;;;;20.55;11.30;;;;;;;16.95;68.38;99377.84;5008123;28;20056;-67
2022/06/11 01:45:32;;;;;;;31.02;14.32;;;;;;;16.94;68.17;99387.75;4995104;28;20045;-71
2022/06/11 01:47:59;;;;;;;21.15;12.38;;;;;;;16.89;68.43;99383.88;5115957;27;20034;-70
2022/06/11 01:50:28;;;;;;;30.42;12.55;;;;;;;16.96;68.53;99391.16;5109143;27;20051;-70
2022/06/11 01:53:28;;;;;;;25.05;13.13;;;;;;;17.08;68.41;99405.22;5107508;27;20038;-66
2022/06/11 01:56:05;;;;;;;19.15;12.38;;;;;;;17.11;68.34;99391.44;5113693;27;20057;-65
2022/06/11 01:58:51;;;;;;;23.85;12.73;;;;;;;17.23;67.99;99394.72;5108394;27;20039;-69
2022/06/11 02:01:34;;;;;;;24.05;11.13;;;;;;;17.24;67.52;99389.19;5102923;27;20051;-67
2022/06/11 02:04:03;;;;;;;23.40;12.18;;;;;;;17.36;67.62;99379.84;5094461;28;20129;-66
2022/06/11 02:06:44;;;;;;;19.35;11.75;;;;;;;17.46;67.51;99377.03;5094667;28;20043;-66
2022/06/11 02:09:20;;;;;;;20.88;11.07;;;;;;;17.55;67.23;99377.91;5093513;28;20469;-66
2022/06/11 02:12:16;;;;;;;22.80;11.80;;;;;;;17.68;66.81;99375.66;5101755;27;20042;-66
2022/06/11 02:14:53;;;;;;;16.40;11.02;;;;;;;17.75;66.72;99374.84;5104582;27;20051;-66
2022/06/11 02:17:26;;;;;;;15.20;11.15;;;;;;;17.82;66.49;99366.13;5115359;27;20046;-65
2022/06/11 02:19:57;;;;;;;20.23;12.30;;;;;;;17.89;66.22;99377.94;5115413;27;20421;-67
2022/06/11 02:22:53;;;;;;;22.35;11.88;;;;;;;17.96;65.86;99362.78;5096798;27;20042;-74
2022/06/11 02:25:24;;;;;;;23.55;13.80;;;;;;;18.07;65.65;99362.47;5094062;27;20159;-66
2022/06/11 02:27:52;;;;;;;19.35;11.35;;;;;;;18.14;65.15;99352.72;5096954;27;20042;-71
2022/06/11 02:30:21;;;;;;;19.58;12.07;;;;;;;18.26;65.03;99351.41;5080173;27;20042;-68
2022/06/11 02:32:47;;;;;;;18.98;11.80;;;;;;;18.34;64.72;99347.88;5112035;27;20042;-67
2022/06/11 02:35:22;;;;;;;20.17;11.65;;;;;;;18.44;64.91;99343.16;5115642;27;20054;-66
2022/06/11 02:37:48;;;;;;;19.98;11.85;;;;;;;18.54;64.75;99343.00;5119092;27;20030;-68
2022/06/11 02:40:21;;;;;;;17.33;12.40;;;;;;;18.65;63.76;99346.25;5100608;27;20103;-65
2022/06/11 02:42:47;;;;;;;21.83;11.95;;;;;;;18.75;62.78;99348.78;5119228;27;20042;-66
2022/06/11 02:45:12;;;;;;;23.92;12.07;;;;;;;18.85;63.12;99362.94;5118827;27;20034;-66
2022/06/11 02:47:39;;;;;;;22.92;11.93;;;;;;;18.97;62.89;99361.59;5117039;27;20035;-67
2022/06/11 02:50:04;;;;;;;22.27;12.13;;;;;;;19.09;62.62;99362.94;5112796;27;20035;-67
2022/06/11 02:52:29;;;;;;;22.25;11.85;;;;;;;19.26;61.15;99376.44;5116101;27;20129;-65
2022/06/11 02:54:54;;;;;;;22.48;12.25;;;;;;;19.41;59.58;99377.44;5081602;27;20051;-68
2022/06/11 02:57:24;;;;;;;19.15;12.18;;;;;;;19.59;60.36;99383.50;5099728;27;20099;-67
2022/06/11 02:59:50;;;;;;;26.25;12.27;;;;;;;19.70;59.40;99368.75;5099058;27;20045;-68
2022/06/11 03:02:15;;;;;;;25.25;12.95;;;;;;;19.79;59.22;99365.00;5116934;27;20074;-64
2022/06/11 03:04:41;;;;;;;22.10;11.82;;;;;;;19.89;59.83;99363.75;5082040;27;20039;-64
2022/06/11 03:07:08;;;;;;;20.85;11.73;;;;;;;20.02;60.03;99362.34;5098992;27;20061;-63
2022/06/11 03:09:34;;;;;;;18.02;11.63;;;;;;;20.15;61.04;99360.75;5098504;27;20123;-64
2022/06/11 03:12:00;;;;;;;17.98;11.90;;;;;;;20.25;61.15;99347.00;5082404;27;20044;-63
2022/06/11 03:14:25;;;;;;;22.40;12.77;;;;;;;20.35;60.49;99352.19;5118643;27;21035;-65
2022/06/11 03:16:50;;;;;;;19.08;11.75;;;;;;;20.49;59.13;99346.88;5118991;27;20097;-65
2022/06/11 03:19:20;;;;;;;20.60;12.02;;;;;;;20.63;58.41;99347.97;5118407;27;20070;-64
2022/06/11 03:21:46;;;;;;;24.23;13.07;;;;;;;20.77;57.19;99349.06;5098107;27;20095;-66
2022/06/11 03:24:11;;;;;;;21.25;12.05;;;;;;;20.91;57.25;99359.91;5114487;27;20038;-66
2022/06/11 03:26:36;;;;;;;18.42;12.57;;;;;;;21.07;57.20;99352.66;5095962;27;20034;-66
2022/06/11 03:29:02;;;;;;;21.02;12.18;;;;;;;21.23;57.04;99363.38;5116925;27;20038;-65
2022/06/11 03:31:26;;;;;;;22.60;12.15;;;;;;;21.40;55.92;99358.63;5097793;27;20500;-65
2022/06/11 03:33:51;;;;;;;20.17;12.80;;;;;;;21.57;55.62;99365.56;5116652;27;20526;-65
2022/06/11 03:36:18;;;;;;;18.70;11.73;;;;;;;21.75;55.66;99363.31;5095204;27;20118;-66
2022/06/11 03:38:45;;;;;;;25.88;12.82;;;;;;;21.90;54.38;99360.59;5116483;27;20035;-66
2022/06/11 03:41:11;;;;;;;30.13;12.18;;;;;;;22.05;53.68;99364.16;5116427;27;20441;-66
2022/06/11 03:43:36;;;;;;;28.08;12.18;;;;;;;22.21;52.43;99368.53;5116963;27;20095;-66
2022/06/11 03:46:03;;;;;;;30.20;12.10;;;;;;;22.33;52.01;99373.28;5098211;27;20408;-66
2022/06/11 03:48:29;;;;;;;21.88;12.15;;;;;;;22.47;51.09;99368.81;5098254;27;20125;-67
2022/06/11 03:50:53;;;;;;;27.55;12.82;;;;;;;22.60;50.17;99368.97;5081761;27;20046;-67
2022/06/11 03:53:19;;;;;;;19.08;11.40;;;;;;;22.72;50.66;99370.13;5117042;27;20148;-67
2022/06/11 03:55:44;;;;;;;19.75;10.80;;;;;;;22.87;50.37;99377.41;5081830;27;20050;-66
2022/06/11 03:58:10;;;;;;;15.65;10.70;;;;;;;23.00;49.49;99364.78;5064793;27;20451;-67
2022/06/11 04:03:20;;;;;;;17.73;10.95;;;;;;;23.38;47.69;99376.16;5117494;27;20039;-67
2022/06/11 04:05:46;;;;;;;23.27;10.93;;;;;;;23.57;48.31;99384.72;5081179;27;20037;-66
2022/06/11 04:08:12;;;;;;;21.25;10.23;;;;;;;23.68;47.25;99374.13;5117173;27;20042;-64
2022/06/11 04:10:37;;;;;;;26.70;9.98;;;;;;;23.70;44.76;99372.00;5116935;27;20038;-65
2022/06/11 04:13:03;;;;;;;15.32;8.68;;;;;;;23.70;44.89;99366.56;5080955;27;20054;-66
2022/06/11 04:15:27;;;;;;;17.50;9.40;;;;;;;23.80;45.95;99368.94;5098237;27;20118;-66
2022/06/11 04:17:52;;;;;;;16.30;9.32;;;;;;;23.93;45.91;99366.25;5098252;27;20050;-67
2022/06/11 04:20:17;;;;;;;17.50;9.73;;;;;;;24.11;45.98;99358.41;5098770;27;20038;-66
2022/06/11 04:22:43;;;;;;;24.58;10.18;;;;;;;24.34;45.02;99362.72;5098194;27;20095;-66
2022/06/11 04:25:12;;;;;;;15.82;9.35;;;;;;;24.53;44.38;99359.19;5098262;27;20087;-67
2022/06/11 04:27:36;;;;;;;14.10;9.85;;;;;;;24.63;44.32;99361.50;5081208;27;20039;-66
2022/06/11 04:30:01;;;;;;;16.40;9.18;;;;;;;24.76;44.10;99372.44;5098062;27;20035;-68
2022/06/11 04:32:29;;;;;;;14.30;9.45;;;;;;;24.89;43.44;99373.31;5098384;27;20882;-67
2022/06/11 04:34:54;;;;;;;15.27;8.95;;;;;;;25.06;40.97;99370.19;5098284;27;20125;-68
2022/06/11 04:37:24;;;;;;;12.65;8.68;;;;;;;25.29;41.21;99384.25;5097981;27;20050;-66
2022/06/11 04:39:51;;;;;;;11.00;8.07;;;;;;;25.52;40.85;99375.63;5098305;27;20034;-66
2022/06/11 04:42:17;;;;;;;12.85;7.60;;;;;;;25.77;40.36;99376.66;5098712;27;20145;-67
2022/06/11 04:44:44;;;;;;;11.32;7.78;;;;;;;26.07;39.41;99368.81;5117250;27;20031;-66
2022/06/11 04:47:12;;;;;;;13.18;8.43;;;;;;;26.39;38.87;99370.56;5116747;27;20053;-67
2022/06/11 04:49:37;;;;;;;14.40;8.65;;;;;;;26.79;38.20;99374.94;5116467;27;20027;-66
2022/06/11 04:52:03;;;;;;;11.48;7.25;;;;;;;27.16;37.88;99385.03;5098103;27;20050;-66
2022/06/11 04:54:28;;;;;;;14.70;8.25;;;;;;;27.50;36.80;99378.19;5096777;27;20192;-66
2022/06/11 04:56:53;;;;;;;12.30;7.38;;;;;;;27.84;36.47;99385.06;5116264;27;20145;-66
2022/06/11 04:59:17;;;;;;;12.35;7.05;;;;;;;28.17;35.42;99395.63;5116347;27;20046;-66
2022/06/11 05:01:43;;;;;;;14.23;6.25;;;;;;;28.52;33.59;99407.66;5097600;27;20047;-66
2022/06/11 05:04:10;;;;;;;12.75;6.50;;;;;;;28.91;33.39;99402.69;5116496;27;20432;-67
2022/06/11 05:06:39;;;;;;;10.13;6.25;;;;;;;29.02;32.89;99399.13;5116742;27;20121;-68
2022/06/11 05:09:05;;;;;;;8.65;5.53;;;;;;;28.84;33.68;99391.81;5116547;27;20041;-66
2022/06/11 05:11:30;;;;;;;14.38;7.10;;;;;;;28.64;32.40;99385.75;5116923;27;20078;-65
2022/06/11 05:13:55;;;;;;;9.23;6.50;;;;;;;28.71;33.41;99383.75;5098192;27;20121;-67
2022/06/11 05:16:21;;;;;;;8.90;5.82;;;;;;;29.06;33.02;99386.63;5097575;27;20054;-67
2022/06/11 05:18:46;;;;;;;9.40;5.85;;;;;;;29.40;32.72;99386.94;5097490;27;20057;-66
2022/06/11 05:21:10;;;;;;;10.82;6.38;;;;;;;29.64;31.01;99396.88;5097652;27;20042;-68
2022/06/11 05:23:35;;;;;;;10.45;6.72;;;;;;;29.79;29.88;99399.13;5097166;27;20039;-67
2022/06/11 05:26:00;;;;;;;9.25;6.10;;;;;;;29.82;30.11;99391.22;5115701;27;20123;-67
2022/06/11 05:28:29;;;;;;;11.82;7.03;;;;;;;29.88;30.04;99395.78;5097409;27;20481;-67
2022/06/11 05:30:56;;;;;;;14.88;7.05;;;;;;;29.88;30.19;99395.78;5115586;27;20504;-66
2022/06/11 05:33:21;;;;;;;12.35;6.72;;;;;;;29.93;29.85;99401.38;5115885;27;20046;-67
2022/06/11 05:35:47;;;;;;;14.20;7.13;;;;;;;29.72;29.60;99398.41;5115771;27;20442;-67
2022/06/11 05:38:15;;;;;;;11.98;6.93;;;;;;;29.50;30.79;99404.50;5115542;27;20046;-68
2022/06/11 05:40:41;;;;;;;10.43;6.68;;;;;;;29.38;30.95;99397.31;5079469;27;20070;-67
2022/06/11 05:43:06;;;;;;;7.53;4.78;;;;;;;29.16;30.33;99392.38;5115257;27;20134;-67
2022/06/11 05:45:37;;;;;;;9.35;5.68;;;;;;;29.13;30.48;99395.56;5115083;27;20047;-66
2022/06/11 05:48:04;;;;;;;14.23;5.80;;;;;;;29.25;30.49;99390.94;5097882;27;20489;-66
2022/06/11 05:50:35;;;;;;;5.85;4.95;;;;;;;29.45;29.40;99385.16;5115922;27;20489;-66
2022/06/11 05:53:01;;;;;;;7.25;4.95;;;;;;;29.72;28.73;99392.91;5115430;27;20042;-68
2022/06/11 05:55:31;;;;;;;4.18;3.78;;;;;;;29.87;27.53;99393.28;5113489;27;20477;-68
2022/06/11 05:57:59;;;;;;;6.22;4.10;;;;;;;30.13;27.40;99394.69;5115071;27;20123;-68
2022/06/11 06:00:26;;;;;;;6.47;4.50;;;;;;;30.47;27.37;99396.53;5115170;27;20479;-68
2022/06/11 06:02:50;;;;;;;7.45;4.50;;;;;;;30.84;27.44;99391.47;5115410;27;20521;-67
2022/06/11 06:05:20;;;;;;;7.32;4.20;;;;;;;31.06;26.02;99397.09;5115139;27;20505;-67
2022/06/11 06:07:45;;;;;;;11.50;4.07;;;;;;;30.84;25.75;99398.88;5115306;27;20057;-67
2022/06/11 06:10:10;;;;;;;3.90;3.40;;;;;;;30.57;26.31;99391.25;5117861;27;20027;-68
2022/06/11 06:12:37;;;;;;;3.75;3.30;;;;;;;30.40;26.84;99398.56;5119378;27;20772;-67
2022/06/11 06:15:09;;;;;;;5.43;4.50;;;;;;;30.10;28.18;99406.19;5119306;27;20412;-67
2022/06/11 06:17:34;;;;;;;6.90;5.00;;;;;;;29.52;28.60;99409.75;5119219;27;20042;-67
2022/06/11 06:19:59;;;;;;;8.90;5.28;;;;;;;28.93;29.76;99416.19;5119221;27;20054;-67
2022/06/11 06:22:24;;;;;;;8.50;5.63;;;;;;;28.41;30.82;99411.19;5083516;27;20041;-66
2022/06/11 06:24:48;;;;;;;6.82;5.43;;;;;;;28.01;31.14;99413.50;5100596;27;20046;-66
2022/06/11 06:27:13;;;;;;;5.88;4.55;;;;;;;27.69;31.63;99406.47;5100622;27;20426;-67
2022/06/11 06:29:38;;;;;;;7.32;4.63;;;;;;;27.57;32.36;99417.34;5118804;27;20404;-67
2022/06/11 06:32:03;;;;;;;5.47;4.75;;;;;;;27.60;32.26;99416.91;5118985;27;20440;-67
2022/06/11 06:34:28;;;;;;;4.47;4.07;;;;;;;27.71;31.48;99423.53;5100564;27;20056;-66
2022/06/11 06:36:53;;;;;;;5.45;4.03;;;;;;;27.88;31.42;99418.31;5118965;27;20042;-67
2022/06/11 06:39:17;;;;;;;7.97;4.88;;;;;;;28.13;31.47;99422.66;5083137;27;20047;-67
2022/06/11 06:41:42;;;;;;;6.15;4.15;;;;;;;28.82;30.02;99410.41;5118665;27;20035;-67
2022/06/11 06:44:07;;;;;;;5.22;3.95;;;;;;;29.63;28.57;99421.81;5118924;27;20046;-66
2022/06/11 06:46:31;;;;;;;7.30;4.80;;;;;;;30.24;27.68;99429.59;5118685;27;20054;-67
2022/06/11 06:48:56;;;;;;;4.75;3.90;;;;;;;30.51;27.49;99429.84;5100053;27;20483;-66
2022/06/11 06:51:21;;;;;;;6.60;4.35;;;;;;;30.37;27.02;99425.69;5118771;27;20473;-66
2022/06/11 06:53:46;;;;;;;6.22;3.80;;;;;;;30.08;27.96;99428.41;5118511;27;20053;-66
2022/06/11 06:56:11;;;;;;;6.22;4.68;;;;;;;29.88;28.44;99428.75;5099682;27;20038;-66
2022/06/11 06:58:36;;;;;;;6.07;5.20;;;;;;;30.94;27.92;99426.59;5118399;27;20081;-65
2022/06/11 07:01:02;;;;;;;8.05;6.47;;;;;;;32.59;25.51;99425.06;5118334;27;20034;-66
2022/06/11 07:03:26;;;;;;;6.60;4.90;;;;;;;34.09;22.97;99432.25;5082832;27;20086;-65
2022/06/11 07:05:51;;;;;;;6.13;4.20;;;;;;;34.69;22.42;99427.28;5118185;27;20034;-66
2022/06/11 07:08:17;;;;;;;4.60;4.20;;;;;;;34.94;22.68;99441.25;5099541;27;20043;-66
2022/06/11 07:10:47;;;;;;;5.05;4.50;;;;;;;34.97;22.26;99451.78;5099810;27;20042;-65
2022/06/11 07:13:12;;;;;;;9.43;4.78;;;;;;;34.55;22.81;99438.03;5082556;27;20394;-67
2022/06/11 07:15:37;;;;;;;6.05;5.35;;;;;;;33.86;22.83;99439.03;5099457;27;20388;-68
2022/06/11 07:18:10;;;;;;;7.05;4.40;;;;;;;33.08;23.97;99434.19;5117770;27;20050;-68
2022/06/11 07:20:36;;;;;;;5.15;4.63;;;;;;;32.18;24.81;99426.47;5116984;27;20130;-68
2022/06/11 07:23:17;;;;;;;6.63;5.00;;;;;;;31.69;25.13;99431.81;5118060;27;20090;-68
2022/06/11 07:25:45;;;;;;;6.00;4.82;;;;;;;31.22;25.97;99432.13;5099673;27;20045;-68
2022/06/11 07:28:21;;;;;;;5.57;4.20;;;;;;;32.68;25.10;99434.56;5118574;27;20149;-67
2022/06/11 07:30:46;;;;;;;8.25;5.10;;;;;;;34.36;22.80;99434.09;5118391;27;20117;-66
2022/06/11 07:33:17;;;;;;;9.90;5.72;;;;;;;35.00;21.95;99442.06;5117613;27;20066;-67
2022/06/11 07:35:42;;;;;;;8.40;4.80;;;;;;;34.51;21.72;99451.63;5118320;27;20453;-66
2022/06/11 07:38:11;;;;;;;7.63;5.40;;;;;;;33.80;22.58;99439.28;5117582;27;20454;-66
2022/06/11 07:40:36;;;;;;;7.68;4.75;;;;;;;32.93;23.90;99436.81;5117762;27;20035;-67
2022/06/11 07:43:00;;;;;;;6.80;5.03;;;;;;;32.15;25.01;99440.75;5117531;27;20046;-67
2022/06/11 07:45:26;;;;;;;5.22;4.55;;;;;;;31.39;25.72;99443.97;5117798;27;20527;-67
2022/06/11 07:47:53;;;;;;;6.70;5.63;;;;;;;30.78;26.92;99447.50;5117330;27;20058;-67
2022/06/11 07:50:18;;;;;;;7.13;6.43;;;;;;;30.25;28.00;99431.22;5117612;27;20042;-67
2022/06/11 07:52:43;;;;;;;5.93;5.07;;;;;;;29.72;28.31;99440.47;5117417;27;20061;-67
2022/06/11 07:55:11;;;;;;;7.65;4.55;;;;;;;29.15;30.33;99451.09;5117566;27;20062;-67
2022/06/11 07:57:36;;;;;;;8.82;4.80;;;;;;;28.29;30.07;99440.44;5117598;27;20034;-66
2022/06/11 08:00:03;;;;;;;5.55;4.30;;;;;;;27.53;30.87;99448.97;5099648;27;20495;-66
2022/06/11 08:02:38;;;;;;;10.77;4.50;;;;;;;27.03;32.91;99448.06;5118071;27;20090;-68
2022/06/11 08:05:03;;;;;;;5.95;4.38;;;;;;;26.74;34.48;99455.78;5099572;27;20126;-67
2022/06/11 08:07:29;;;;;;;7.93;5.30;;;;;;;26.54;34.83;99454.19;5098741;27;20042;-65
2022/06/11 08:09:56;;;;;;;7.20;4.90;;;;;;;26.32;34.49;99445.44;5116598;27;20122;-67
2022/06/11 08:12:20;;;;;;;8.65;5.28;;;;;;;26.09;36.03;99450.53;5098738;27;20141;-68
2022/06/11 08:14:45;;;;;;;10.73;5.85;;;;;;;25.86;36.14;99440.91;5098157;27;20079;-67
2022/06/11 08:17:10;;;;;;;11.10;7.20;;;;;;;25.66;37.75;99446.41;5098225;27;20513;-68
2022/06/11 08:19:35;;;;;;;11.77;6.10;;;;;;;25.52;38.00;99446.59;5116907;27;20042;-67
2022/06/11 08:21:59;;;;;;;10.85;7.30;;;;;;;25.43;38.74;99450.59;5098019;27;20069;-68
2022/06/11 08:24:24;;;;;;;11.13;6.60;;;;;;;25.38;39.52;99458.59;5116544;27;20580;-68
2022/06/11 08:26:49;;;;;;;14.30;7.15;;;;;;;25.36;38.88;99455.22;5097975;27;20138;-66
2022/06/11 08:29:14;;;;;;;8.02;5.70;;;;;;;25.32;37.55;99455.63;5116747;27;20043;-67
2022/06/11 08:31:39;;;;;;;8.10;5.32;;;;;;;25.33;37.33;99456.47;5097412;27;20404;-68
2022/06/11 08:34:04;;;;;;;13.07;6.55;;;;;;;25.34;38.03;99455.41;5098137;27;20408;-66
2022/06/11 08:36:28;;;;;;;9.48;6.55;;;;;;;25.36;37.89;99453.31;5116504;27;20034;-66
2022/06/11 08:38:53;;;;;;;7.13;6.18;;;;;;;25.33;38.40;99460.03;5116755;27;20034;-65
2022/06/11 08:41:22;;;;;;;12.55;5.78;;;;;;;25.25;38.41;99459.41;5116363;27;20413;-66
2022/06/11 08:44:09;;;;;;;9.90;5.45;;;;;;;25.35;38.82;99461.72;5097972;27;20484;-66
2022/06/11 08:46:40;;;;;;;5.75;4.63;;;;;;;25.35;38.90;99457.09;5098000;27;20034;-65
2022/06/11 08:49:05;;;;;;;5.85;4.50;;;;;;;25.45;38.19;99446.59;5116283;27;20549;-67
2022/06/11 08:51:42;;;;;;;5.50;4.80;;;;;;;25.84;38.09;99453.13;5097700;27;20117;-67
2022/06/11 08:54:11;;;;;;;9.93;5.93;;;;;;;26.18;39.19;99449.25;5097666;27;20046;-65
2022/06/11 08:56:51;;;;;;;8.93;6.60;;;;;;;26.68;39.18;99461.28;5096966;27;20042;-66
2022/06/11 08:59:31;;;;;;;9.73;6.22;;;;;;;27.20;37.39;99453.84;5115916;27;20433;-67
2022/06/11 09:02:14;;;;;;;12.88;5.90;;;;;;;27.67;38.80;99456.00;5116647;27;20049;-67
2022/06/11 09:04:54;;;;;;;7.82;5.20;;;;;;;28.16;36.46;99455.09;5116681;27;20043;-68
2022/06/11 09:07:28;;;;;;;7.15;5.80;;;;;;;28.31;36.17;99452.00;5116357;27;20496;-69
2022/06/11 09:10:10;;;;;;;7.07;4.75;;;;;;;28.01;36.00;99453.78;5097794;27;20073;-67
2022/06/11 09:13:13;;;;;;;6.60;5.18;;;;;;;27.71;33.93;99457.25;5116054;27;20051;-67
2022/06/11 09:16:00;;;;;;;6.90;5.45;;;;;;;27.26;35.68;99444.75;5114414;27;20445;-67
2022/06/11 09:18:46;;;;;;;9.50;7.00;;;;;;;26.94;36.72;99463.06;5118820;27;20038;-67
2022/06/11 09:21:33;;;;;;;6.13;4.95;;;;;;;26.63;36.31;99469.31;5124672;27;20046;-68
2022/06/11 09:24:27;;;;;;;11.40;5.13;;;;;;;26.28;36.53;99461.47;5124544;27;20504;-66
2022/06/11 09:26:59;;;;;;;23.27;8.77;;;;;;;25.88;37.90;99462.56;5121905;27;20044;-70
2022/06/11 09:29:43;;;;;;;16.02;8.55;;;;;;;25.71;38.66;99461.34;5097177;27;20031;-69
2022/06/11 09:32:28;;;;;;;12.57;6.97;;;;;;;25.64;38.72;99459.44;5116272;27;20558;-69
2022/06/11 09:35:00;;;;;;;10.20;5.75;;;;;;;25.71;37.83;99458.59;5116029;27;20093;-67
2022/06/11 09:37:35;;;;;;;9.30;6.55;;;;;;;25.93;36.79;99458.16;5115655;27;20424;-66
2022/06/11 09:40:11;;;;;;;8.57;5.72;;;;;;;26.29;36.71;99460.41;5115802;27;20034;-66
2022/06/11 09:43:04;;;;;;;8.40;5.93;;;;;;;26.74;35.93;99465.88;5116059;27;20159;-67
2022/06/11 09:45:54;;;;;;;10.85;5.18;;;;;;;27.52;35.40;99460.97;5114780;27;20046;-67
2022/06/11 09:48:31;;;;;;;14.38;7.18;;;;;;;28.05;34.80;99466.81;5115702;27;20126;-69
2022/06/11 09:51:11;;;;;;;13.40;6.07;;;;;;;28.78;33.20;99452.28;5096967;27;20047;-68
2022/06/11 09:53:58;;;;;;;11.20;6.28;;;;;;;30.45;31.48;99459.19;5115798;27;20074;-68
2022/06/11 09:56:38;;;;;;;16.35;7.72;;;;;;;32.96;26.56;99452.88;5115421;27;20054;-67
2022/06/11 09:59:25;;;;;;;8.45;6.03;;;;;;;34.79;24.28;99460.59;5096760;27;20053;-67
2022/06/11 10:01:53;;;;;;;6.53;4.63;;;;;;;35.30;23.32;99456.88;5096913;27;20050;-65
2022/06/11 10:04:27;;;;;;;10.40;4.32;;;;;;;35.76;22.62;99456.06;5115838;27;20053;-67
2022/06/11 10:06:56;;;;;;;8.63;6.10;;;;;;;35.78;22.48;99456.63;5115135;27;20053;-66
2022/06/11 10:09:24;;;;;;;13.77;8.60;;;;;;;35.33;23.53;99454.66;5115181;27;20042;-67
2022/06/11 10:11:58;;;;;;;13.95;6.38;;;;;;;34.65;24.03;99453.88;5096254;27;20034;-66
2022/06/11 10:14:42;;;;;;;9.75;6.82;;;;;;;33.99;25.09;99456.25;5114061;27;20046;-66
2022/06/11 10:17:15;;;;;;;16.02;8.07;;;;;;;33.30;25.58;99439.66;5094623;28;20134;-66
2022/06/11 10:19:49;;;;;;;9.23;7.65;;;;;;;32.60;25.92;99438.63;5094658;28;20469;-67
2022/06/11 10:22:24;;;;;;;8.18;5.60;;;;;;;32.23;27.10;99440.34;5094653;28;20039;-66
2022/06/11 10:25:18;;;;;;;9.73;5.35;;;;;;;31.72;27.35;99434.88;5095254;27;20039;-67
2022/06/11 10:27:53;;;;;;;5.93;5.07;;;;;;;31.07;28.52;99440.06;5071021;28;20549;-67
2022/06/11 10:30:29;;;;;;;5.20;4.70;;;;;;;30.74;28.63;99439.97;5094743;28;20187;-66
2022/06/11 10:32:56;;;;;;;5.88;4.82;;;;;;;30.27;29.14;99429.09;5094697;28;20061;-68
2022/06/11 10:35:30;;;;;;;8.38;5.05;;;;;;;30.10;29.50;99436.41;5094944;28;20041;-67
2022/06/11 10:38:27;;;;;;;9.73;5.32;;;;;;;30.02;30.46;99431.31;5076915;28;20205;-67
2022/06/11 10:40:54;;;;;;;6.90;4.65;;;;;;;29.81;30.45;99413.44;5014794;28;20040;-66
2022/06/11 10:43:28;;;;;;;9.35;5.05;;;;;;;29.80;30.60;99420.84;5006994;28;20530;-67
2022/06/11 10:45:53;;;;;;;7.05;4.68;;;;;;;29.78;30.85;99413.97;5011581;28;20048;-66
2022/06/11 10:48:22;;;;;;;7.03;5.47;;;;;;;29.82;30.82;99415.97;4995098;28;20040;-68
2022/06/11 10:50:48;;;;;;;8.32;5.05;;;;;;;29.86;31.29;99422.66;5011993;28;20095;-68
2022/06/11 10:53:28;;;;;;;6.65;4.97;;;;;;;30.01;31.64;99429.63;5028222;28;20032;-68
2022/06/11 10:56:11;;;;;;;11.85;8.70;;;;;;;29.99;31.02;99431.78;5014032;28;20076;-66
2022/06/11 10:58:49;;;;;;;8.23;5.50;;;;;;;29.65;31.65;99420.53;5015205;28;20083;-66
2022/06/11 11:01:20;;;;;;;9.82;5.32;;;;;;;29.07;32.46;99415.75;5015514;28;20045;-66
2022/06/11 11:03:47;;;;;;;9.70;6.20;;;;;;;28.61;33.71;99419.13;4981742;28;20044;-69
2022/06/11 11:06:29;;;;;;;8.25;6.50;;;;;;;28.41;33.99;99415.81;4998267;28;20127;-68
2022/06/11 11:08:58;;;;;;;9.55;6.35;;;;;;;28.08;34.80;99417.03;5015184;28;20048;-65
2022/06/11 11:11:23;;;;;;;7.53;5.60;;;;;;;27.94;34.93;99417.41;4998484;28;20115;-64
2022/06/11 11:13:51;;;;;;;6.38;4.88;;;;;;;28.05;34.46;99414.75;5015399;28;20178;-65
2022/06/11 11:16:25;;;;;;;6.05;5.20;;;;;;;28.38;33.90;99425.34;5014852;28;20063;-66
2022/06/11 11:18:52;;;;;;;;;;;;;;;28.80;32.92;99429.00;5097608;27;20430;-68
2022/06/11 11:21:30;;;;;;;7.68;5.03;;;;;;;28.36;32.95;99426.63;5078993;27;19960;-68
2022/06/11 11:24:06;;;;;;;10.98;6.03;;;;;;;27.92;33.73;99425.00;5098567;27;20039;-69
2022/06/11 11:26:42;;;;;;;12.50;5.57;;;;;;;27.51;34.29;99434.66;5100061;27;20043;-63
2022/06/11 11:29:15;;;;;;;8.10;5.35;;;;;;;27.06;35.22;99432.06;5103512;27;20083;-64
2022/06/11 11:31:46;;;;;;;7.35;5.30;;;;;;;26.71;35.39;99434.34;5105166;27;20078;-64
2022/06/11 11:34:30;;;;;;;11.02;5.97;;;;;;;26.47;36.08;99437.81;5101234;27;20050;-66
2022/06/11 11:37:13;;;;;;;9.93;5.28;;;;;;;26.44;35.78;99426.47;5064133;27;20480;-63
2022/06/11 11:39:38;;;;;;;6.68;5.72;;;;;;;26.25;36.86;99437.25;5082487;27;20122;-67
2022/06/11 11:42:03;;;;;;;8.60;5.63;;;;;;;26.09;37.69;99431.41;5097897;27;20113;-66
2022/06/11 11:44:33;;;;;;;11.93;6.93;;;;;;;25.98;38.09;99428.28;5079885;27;20520;-67